Youree, Louisiana
Current Conditions -  °F | °C
As of 6:13 AM on Friday 19 Dec 2014 (Local Time) from KDTN Reporting Station
Overcast Overcast  
Wind Chill: 46°   Ceiling: 1000
Heat Index: 49°   Visibility: 10mi
Dew Point: 44°   Wind: 7mph
Humidity: 83%   Direction: 20°NNE
Pressure: 30.12"   Gusts: NA
Location:  32.457°N, 93.7096°W
Report Text: KDTN 191213Z AUTO 02006KT 10SM BKN010 OVC022 09/07 A3012 RMK AO2 T00940067
Loading
Personal Weather Stations






























Interactive Weather Map New forecast layout! Learn more

10-Day Weather Forecast

Advertisements
Track Severe Weather on mobile